createdAt,value
2019-03-16T00:00:15.251Z,90.05
2019-03-16T00:02:51.467Z,84.70
2019-03-16T00:05:25.310Z,87.53
2019-03-16T00:07:59.527Z,81.55
2019-03-16T00:10:34.360Z,82.45
2019-03-16T00:13:08.352Z,84.10
2019-03-16T00:15:43.536Z,89.32
2019-03-16T00:18:25.175Z,96.82
2019-03-16T00:20:59.395Z,90.25
2019-03-16T00:23:32.897Z,102.10
2019-03-16T00:26:06.827Z,101.33
2019-03-16T00:28:40.843Z,96.12
2019-03-16T00:31:15.360Z,94.60
2019-03-16T00:33:49.407Z,92.10
2019-03-16T00:36:23.633Z,93.37
2019-03-16T00:38:57.360Z,90.65
2019-03-16T00:41:31.609Z,92.30
2019-03-16T00:44:05.695Z,105.12
2019-03-16T00:46:39.706Z,93.92
2019-03-16T00:49:13.606Z,101.35
2019-03-16T00:51:48.998Z,94.80
2019-03-16T00:54:28.842Z,101.30
2019-03-16T00:57:03.137Z,92.78
2019-03-16T00:59:37.494Z,82.17
2019-03-16T01:02:11.815Z,98.10
2019-03-16T01:04:47.138Z,94.92
2019-03-16T01:07:21.263Z,108.27
2019-03-16T01:09:56.453Z,102.10
2019-03-16T01:12:31.506Z,96.60
2019-03-16T01:15:05.735Z,94.28
2019-03-16T01:17:40.046Z,89.80
2019-03-16T01:20:14.396Z,92.22
2019-03-16T01:22:48.333Z,104.03
2019-03-16T01:25:22.028Z,89.42
2019-03-16T01:27:55.878Z,96.87
2019-03-16T01:30:29.480Z,90.90
2019-03-16T01:33:03.525Z,83.50
2019-03-16T01:35:37.538Z,86.97
2019-03-16T01:38:14.883Z,86.75
2019-03-16T01:40:49.315Z,85.95
2019-03-16T01:43:24.663Z,81.55
2019-03-16T01:45:58.570Z,86.15
2019-03-16T01:48:34.141Z,87.35
2019-03-16T01:51:08.967Z,83.15
2019-03-16T01:53:44.325Z,83.60
2019-03-16T01:56:17.888Z,88.75
2019-03-16T01:58:51.610Z,82.12
2019-03-16T02:01:25.368Z,84.28
2019-03-16T02:03:59.289Z,88.50
2019-03-16T02:06:32.676Z,78.15
2019-03-16T02:09:08.176Z,79.40
2019-03-16T02:11:42.161Z,80.62
2019-03-16T02:14:16.250Z,79.80
2019-03-16T02:16:52.081Z,79.70
2019-03-16T02:19:26.128Z,80.40
2019-03-16T02:21:59.997Z,77.95
2019-03-16T02:24:33.916Z,74.82
2019-03-16T02:27:07.503Z,80.87
2019-03-16T02:29:41.219Z,80.00
2019-03-16T02:32:15.144Z,76.15
2019-03-16T02:34:49.246Z,76.97
2019-03-16T02:37:23.745Z,67.90
2019-03-16T02:39:57.420Z,78.65
2019-03-16T02:42:30.935Z,79.53
2019-03-16T02:45:05.083Z,81.02
2019-03-16T02:47:38.666Z,83.58
2019-03-16T02:50:14.103Z,80.10
2019-03-16T02:52:49.916Z,74.30
2019-03-16T02:55:22.789Z,73.65
2019-03-16T02:57:56.838Z,79.90
2019-03-16T03:00:30.442Z,82.50
2019-03-16T03:03:04.648Z,79.30
2019-03-16T03:05:41.578Z,86.32
2019-03-16T03:08:15.899Z,79.77
2019-03-16T03:10:49.468Z,71.00
2019-03-16T03:13:23.460Z,76.92
2019-03-16T03:15:56.724Z,67.90
2019-03-16T03:18:31.860Z,78.30
2019-03-16T03:21:05.881Z,71.50
2019-03-16T03:23:41.516Z,67.55
2019-03-16T03:26:15.464Z,74.50
2019-03-16T03:28:49.287Z,71.05
2019-03-16T03:31:23.275Z,69.75
2019-03-16T03:34:01.522Z,66.28
2019-03-16T03:36:34.891Z,63.42
2019-03-16T03:39:17.115Z,73.12
2019-03-16T03:41:50.953Z,57.08
2019-03-16T03:44:24.873Z,64.60
2019-03-16T03:46:59.131Z,72.90
2019-03-16T03:49:32.957Z,72.70
2019-03-16T03:52:06.534Z,70.25
2019-03-16T03:54:40.290Z,72.08
2019-03-16T03:57:15.677Z,78.72
2019-03-16T03:59:49.808Z,88.00
2019-03-16T04:02:25.725Z,87.57
2019-03-16T04:04:59.477Z,86.90
2019-03-16T04:07:33.366Z,82.42
2019-03-16T04:10:08.772Z,88.72
2019-03-16T04:12:55.365Z,91.35
2019-03-16T04:15:29.808Z,92.88
2019-03-16T04:18:04.469Z,86.97
2019-03-16T04:20:38.437Z,87.47
2019-03-16T04:23:12.111Z,85.83
2019-03-16T04:25:45.665Z,95.07
2019-03-16T04:28:19.629Z,93.05
2019-03-16T04:30:53.244Z,94.55
2019-03-16T04:33:26.948Z,99.10
2019-03-16T04:36:00.766Z,92.53
2019-03-16T04:38:35.085Z,107.65
2019-03-16T04:41:08.904Z,116.85
2019-03-16T04:43:44.003Z,107.07
2019-03-16T04:46:17.888Z,100.72
2019-03-16T04:48:53.010Z,109.72
2019-03-16T04:51:27.199Z,116.57
2019-03-16T04:54:01.139Z,112.45
2019-03-16T04:56:35.569Z,113.72
2019-03-16T04:59:11.282Z,109.63
2019-03-16T05:01:45.260Z,109.07
2019-03-16T05:04:19.418Z,119.90
2019-03-16T05:06:53.378Z,129.75
2019-03-16T05:09:27.142Z,129.45
2019-03-16T05:12:05.032Z,123.97
2019-03-16T05:14:38.804Z,129.65
2019-03-16T05:17:12.406Z,128.35
2019-03-16T05:19:46.259Z,122.98
2019-03-16T05:22:19.936Z,136.72
2019-03-16T05:24:53.403Z,128.38
2019-03-16T05:27:27.618Z,126.45
2019-03-16T05:30:01.556Z,124.55
2019-03-16T05:32:35.684Z,126.12
2019-03-16T05:35:09.742Z,129.03
2019-03-16T05:37:44.431Z,134.65
2019-03-16T05:40:18.531Z,132.40
2019-03-16T05:43:03.884Z,140.70
2019-03-16T05:45:41.214Z,142.37
2019-03-16T05:48:15.223Z,130.18
2019-03-16T05:50:49.486Z,134.97
2019-03-16T05:53:23.459Z,138.90
2019-03-16T05:55:57.862Z,142.55
2019-03-16T05:58:31.311Z,145.65
2019-03-16T06:01:05.254Z,131.20
2019-03-16T06:03:39.694Z,143.90
2019-03-16T06:06:13.597Z,133.12
2019-03-16T06:08:48.342Z,141.53
2019-03-16T06:11:22.115Z,130.63
2019-03-16T06:13:57.245Z,137.80
2019-03-16T06:16:31.228Z,145.57
2019-03-16T06:19:06.001Z,150.87
2019-03-16T06:21:40.024Z,148.87
2019-03-16T06:24:13.851Z,137.40
2019-03-16T06:26:47.425Z,141.97
2019-03-16T06:29:21.266Z,129.97
2019-03-16T06:31:55.276Z,134.85
2019-03-16T06:34:29.665Z,131.35
2019-03-16T06:37:03.144Z,141.75
2019-03-16T06:39:36.846Z,124.65
2019-03-16T06:42:10.905Z,120.70
2019-03-16T06:44:44.366Z,127.45
2019-03-16T06:47:18.689Z,134.05
2019-03-16T06:49:52.427Z,132.75
2019-03-16T06:52:26.596Z,127.67
2019-03-16T06:55:08.023Z,128.40
2019-03-16T06:57:42.386Z,124.33
2019-03-16T07:00:21.997Z,131.57
2019-03-16T07:02:56.209Z,130.57
2019-03-16T07:05:38.136Z,124.75
2019-03-16T07:08:05.527Z,125.50
2019-03-16T07:10:38.939Z,126.42
2019-03-16T07:13:12.950Z,128.97
2019-03-16T07:15:47.901Z,127.65
2019-03-16T07:18:22.483Z,125.50
2019-03-16T07:20:56.514Z,132.47
2019-03-16T07:23:31.482Z,120.67
2019-03-16T07:26:17.072Z,124.02
2019-03-16T07:28:51.244Z,121.60
2019-03-16T07:31:24.790Z,123.28
2019-03-16T07:33:58.831Z,124.72
2019-03-16T07:36:35.829Z,134.60
2019-03-16T07:39:10.664Z,120.35
2019-03-16T07:41:44.615Z,131.80
2019-03-16T07:44:19.015Z,124.20
2019-03-16T07:49:48.673Z,123.95
2019-03-16T07:52:22.702Z,119.62
2019-03-16T07:54:58.896Z,125.12
2019-03-16T07:57:40.205Z,124.75
2019-03-16T08:00:11.145Z,121.67
2019-03-16T08:02:47.133Z,119.77
2019-03-16T08:05:23.286Z,118.30
2019-03-16T08:07:57.331Z,115.97
2019-03-16T08:10:32.955Z,120.62
2019-03-16T08:13:08.784Z,114.28
2019-03-16T08:15:42.927Z,128.27
2019-03-16T08:18:16.477Z,123.40
2019-03-16T08:20:51.866Z,118.30
2019-03-16T08:23:25.627Z,113.37
2019-03-16T08:25:59.449Z,107.25
2019-03-16T08:28:33.361Z,116.55
2019-03-16T08:31:06.940Z,111.72
2019-03-16T08:33:40.792Z,109.45
2019-03-16T08:36:14.620Z,112.95
2019-03-16T08:39:07.910Z,120.02
2019-03-16T08:41:42.076Z,117.95
2019-03-16T08:44:15.836Z,126.92
2019-03-16T08:46:50.107Z,120.30
2019-03-16T08:49:23.965Z,128.70
2019-03-16T08:51:57.784Z,121.77
2019-03-16T08:54:31.790Z,119.97
2019-03-16T08:57:05.506Z,125.67
2019-03-16T08:59:39.026Z,135.55
2019-03-16T09:02:13.617Z,153.78
2019-03-16T09:04:47.911Z,169.17
2019-03-16T09:07:22.904Z,161.82
2019-03-16T09:09:56.722Z,144.02
2019-03-16T09:12:30.223Z,168.05
2019-03-16T09:15:04.033Z,163.75
2019-03-16T09:17:37.742Z,132.90
2019-03-16T09:20:12.459Z,129.87
2019-03-16T09:22:46.363Z,156.10
2019-03-16T09:25:21.933Z,141.18
2019-03-16T09:27:55.914Z,135.90
2019-03-16T09:30:29.554Z,132.20
2019-03-16T09:33:03.621Z,140.03
2019-03-16T09:35:37.976Z,125.45
2019-03-16T09:38:11.835Z,115.30
2019-03-16T09:40:46.060Z,102.10
2019-03-16T09:43:20.006Z,112.75
2019-03-16T09:45:53.971Z,94.80
2019-03-16T09:48:28.708Z,93.05
2019-03-16T09:51:02.372Z,96.05
2019-03-16T09:53:36.251Z,104.78
2019-03-16T09:56:10.822Z,88.92
2019-03-16T09:58:44.502Z,94.80
2019-03-16T10:01:19.009Z,83.12
2019-03-16T10:03:52.684Z,73.83
2019-03-16T10:06:26.877Z,80.53
2019-03-16T10:09:00.637Z,77.42
2019-03-16T10:11:36.208Z,71.77
2019-03-16T10:14:09.883Z,76.33
2019-03-16T10:16:44.508Z,78.62
2019-03-16T10:19:18.198Z,72.95
2019-03-16T10:21:52.372Z,70.35
2019-03-16T10:24:26.105Z,79.55
2019-03-16T10:27:00.056Z,80.17
2019-03-16T10:29:33.841Z,81.28
2019-03-16T10:32:07.817Z,78.35
2019-03-16T10:34:41.831Z,77.75
2019-03-16T10:37:16.000Z,86.67
2019-03-16T10:39:49.960Z,83.80
2019-03-16T10:42:24.046Z,84.97
2019-03-16T10:44:58.419Z,83.75
2019-03-16T10:47:32.888Z,89.60
2019-03-16T10:50:07.604Z,87.42
2019-03-16T10:52:42.552Z,80.90
2019-03-16T10:55:16.189Z,81.00
2019-03-16T10:57:50.074Z,88.20
2019-03-16T11:00:23.669Z,78.35
2019-03-16T11:02:57.862Z,79.72
2019-03-16T11:05:32.491Z,71.20
2019-03-16T11:08:08.224Z,78.07
2019-03-16T11:10:41.711Z,86.15
2019-03-16T11:13:15.392Z,81.72
2019-03-16T11:15:48.868Z,86.75
2019-03-16T11:18:22.759Z,74.05
2019-03-16T11:20:56.698Z,77.45
2019-03-16T11:23:30.541Z,79.00
2019-03-16T11:26:04.065Z,81.75
2019-03-16T11:28:38.125Z,83.37
2019-03-16T11:31:12.577Z,74.27
2019-03-16T11:33:48.391Z,77.00
2019-03-16T11:36:21.803Z,76.20
2019-03-16T11:38:56.279Z,81.92
2019-03-16T11:41:30.646Z,79.00
2019-03-16T11:44:04.822Z,83.95
2019-03-16T11:46:38.502Z,87.90
2019-03-16T11:49:12.029Z,75.08
2019-03-16T11:51:45.763Z,74.37
2019-03-16T11:54:20.671Z,76.17
2019-03-16T11:56:54.938Z,76.42
2019-03-16T11:59:28.730Z,72.70
2019-03-16T12:02:05.471Z,69.25
2019-03-16T12:04:40.140Z,67.95
2019-03-16T12:07:14.099Z,68.40
2019-03-16T12:09:48.786Z,74.75
2019-03-16T12:12:22.237Z,70.40
2019-03-16T12:14:56.304Z,76.15
2019-03-16T12:17:29.861Z,70.08
2019-03-16T12:20:04.073Z,65.22
2019-03-16T12:22:37.941Z,65.22
2019-03-16T12:25:11.491Z,68.22
2019-03-16T12:27:45.685Z,73.15
2019-03-16T12:30:19.095Z,66.47
2019-03-16T12:32:55.255Z,67.60
2019-03-16T12:35:28.808Z,63.08
2019-03-16T12:38:02.784Z,58.52
2019-03-16T12:40:36.461Z,60.48
2019-03-16T12:43:10.487Z,58.92
2019-03-16T12:45:44.172Z,62.10
2019-03-16T12:48:18.007Z,62.48
2019-03-16T12:50:54.299Z,61.75
2019-03-16T12:53:28.176Z,62.90
2019-03-16T12:56:01.712Z,62.88
2019-03-16T12:58:35.844Z,67.05
2019-03-16T13:01:12.420Z,60.50
2019-03-16T13:03:44.647Z,63.65
2019-03-16T13:06:19.216Z,68.42
2019-03-16T13:08:53.359Z,73.97
2019-03-16T13:11:27.369Z,68.20
2019-03-16T13:14:01.263Z,69.62
2019-03-16T13:16:37.295Z,77.20
2019-03-16T13:19:12.359Z,77.20
2019-03-16T13:21:46.933Z,83.62
2019-03-16T13:24:20.929Z,74.77
2019-03-16T13:26:54.204Z,76.50
2019-03-16T13:29:28.524Z,72.72
2019-03-16T13:32:02.695Z,70.20
2019-03-16T13:34:36.252Z,77.72
2019-03-16T13:37:10.021Z,80.45
2019-03-16T13:39:43.776Z,86.30
2019-03-16T13:42:17.297Z,80.72
2019-03-16T13:44:51.476Z,83.65
2019-03-16T13:47:25.585Z,84.13
2019-03-16T13:50:01.012Z,78.57
2019-03-16T13:52:36.171Z,86.95
2019-03-16T13:55:11.876Z,91.80
2019-03-16T13:57:45.921Z,90.92
2019-03-16T14:00:21.713Z,89.20
2019-03-16T14:02:55.713Z,93.50
2019-03-16T14:05:29.771Z,87.72
2019-03-16T14:08:04.760Z,91.82
2019-03-16T14:10:38.804Z,101.22
2019-03-16T14:13:13.063Z,94.42
2019-03-16T14:15:47.067Z,99.75
2019-03-16T14:18:20.896Z,94.25
2019-03-16T14:20:54.678Z,88.60
2019-03-16T14:23:28.532Z,95.20
2019-03-16T14:26:02.401Z,90.53
2019-03-16T14:28:35.917Z,90.53
2019-03-16T14:31:09.939Z,91.80
2019-03-16T14:33:43.315Z,92.25
2019-03-16T14:36:17.273Z,103.45
2019-03-16T14:38:51.094Z,101.92
2019-03-16T14:41:25.175Z,99.37
2019-03-16T14:44:11.634Z,106.70
2019-03-16T14:46:45.521Z,107.22
2019-03-16T14:49:20.480Z,102.58
2019-03-16T14:51:54.078Z,102.92
2019-03-16T14:54:28.018Z,101.95
2019-03-16T14:57:02.242Z,106.47
2019-03-16T14:59:36.989Z,113.10
2019-03-16T15:02:13.779Z,97.65
2019-03-16T15:04:49.189Z,108.03
2019-03-16T15:07:23.155Z,106.50
2019-03-16T15:09:57.065Z,104.07
2019-03-16T15:12:51.801Z,107.25
2019-03-16T15:15:25.543Z,103.70
2019-03-16T15:17:59.629Z,102.12
2019-03-16T15:20:33.943Z,108.35
2019-03-16T15:23:08.114Z,109.67
2019-03-16T15:25:42.170Z,116.75
2019-03-16T15:28:15.941Z,130.95
2019-03-16T15:30:50.848Z,136.85
2019-03-16T15:33:25.246Z,127.27
2019-03-16T15:36:00.020Z,119.13
2019-03-16T15:38:35.966Z,131.20
2019-03-16T15:41:09.949Z,126.70
2019-03-16T15:43:44.844Z,117.57
2019-03-16T15:46:18.855Z,118.40
2019-03-16T15:48:53.462Z,116.30
2019-03-16T15:51:27.632Z,139.65
2019-03-16T15:54:01.842Z,118.95
2019-03-16T15:56:35.585Z,109.00
2019-03-16T15:59:11.132Z,131.82
2019-03-16T16:01:44.839Z,109.12
2019-03-16T16:04:26.382Z,126.78
2019-03-16T16:07:01.007Z,116.15
2019-03-16T16:09:35.324Z,126.00
2019-03-16T16:12:09.871Z,127.40
2019-03-16T16:14:44.192Z,118.13
2019-03-16T16:17:18.318Z,119.72
2019-03-16T16:19:52.396Z,127.65
2019-03-16T16:22:26.373Z,120.40
2019-03-16T16:25:02.221Z,121.37
2019-03-16T16:27:36.319Z,118.17
2019-03-16T16:30:15.636Z,117.72
2019-03-16T16:32:49.625Z,104.12
2019-03-16T16:35:25.740Z,106.27
2019-03-16T16:37:59.492Z,104.15
2019-03-16T16:40:33.756Z,95.95
2019-03-16T16:43:07.862Z,101.55
2019-03-16T16:45:42.018Z,102.95
2019-03-16T16:48:16.010Z,96.78
2019-03-16T16:50:49.952Z,102.72
2019-03-16T16:53:23.662Z,100.62
2019-03-16T16:55:57.636Z,105.17
2019-03-16T16:58:31.308Z,98.65
2019-03-16T17:01:05.453Z,105.78
2019-03-16T17:03:39.254Z,106.55
